Fleming, Kentucky
Current Conditions -  °F | °C
As of 10:35 PM on Sunday 21 Dec 2014 (Local Time) from KLNP Reporting Station
Clear Clear  
Wind Chill: 34°   Ceiling: Unl
Heat Index: 37°   Visibility: 10mi
Dew Point: 32°   Wind: 5mph
Humidity: 81%   Direction: 160°SSE
Pressure: 30.09"   Gusts: NA
Location:  37.216°N, 82.7112°W
Report Text: KLNP 220335Z AUTO 16004KT 10SM CLR 03/00 A3009 RMK AO2
Loading
Personal Weather Stations






























Interactive Weather Map New forecast layout! Learn more

10-Day Weather Forecast

Advertisements
Track Severe Weather on mobile